createdAt,value
2023-03-29T10:41:13.775Z,9.18
2023-03-29T10:42:24.826Z,12.38
2023-03-29T10:43:40.187Z,10.77
2023-03-29T10:44:51.457Z,8.82
2023-03-29T10:45:57.918Z,10.32
2023-03-29T10:47:23.434Z,9.83
2023-03-29T10:48:34.411Z,9.07
2023-03-29T10:49:47.054Z,13.07
2023-03-29T10:50:57.238Z,13.77
2023-03-29T10:52:14.925Z,14.13
2023-03-29T10:53:36.332Z,9.98
2023-03-29T10:54:43.535Z,10.05
2023-03-29T10:55:58.743Z,10.27
2023-03-29T10:57:10.891Z,11.40
2023-03-29T10:58:27.690Z,11.23
2023-03-29T10:59:37.920Z,8.23
2023-03-29T11:00:51.493Z,9.27
2023-03-29T11:02:20.427Z,14.93
2023-03-29T11:04:03.305Z,11.00
2023-03-29T11:05:24.181Z,13.00
2023-03-29T11:06:40.162Z,12.20
2023-03-29T11:07:57.839Z,11.73
2023-03-29T11:09:24.179Z,9.85
2023-03-29T11:10:46.161Z,11.18
2023-03-29T11:12:15.603Z,8.65
2023-03-29T11:13:30.823Z,12.93
2023-03-29T11:14:43.221Z,9.20
2023-03-29T11:15:59.752Z,11.52
2023-03-29T11:17:18.630Z,9.00
2023-03-29T11:18:40.967Z,11.05
2023-03-29T11:19:59.227Z,16.98
2023-03-29T11:21:11.702Z,10.07
2023-03-29T11:22:24.466Z,9.90
2023-03-29T11:23:41.930Z,9.20
2023-03-29T11:25:06.384Z,9.68
2023-03-29T11:26:18.475Z,10.70
2023-03-29T11:27:32.252Z,9.90
2023-03-29T11:28:45.615Z,9.75
2023-03-29T11:30:19.636Z,11.23
2023-03-29T11:31:38.822Z,10.40
2023-03-29T11:32:55.381Z,11.45
2023-03-29T11:34:24.858Z,10.40
2023-03-29T11:35:45.255Z,10.85
2023-03-29T11:37:03.567Z,11.63
2023-03-29T11:38:28.652Z,11.13
2023-03-29T11:39:45.981Z,12.50
2023-03-29T11:41:02.205Z,10.20
2023-03-29T11:42:15.788Z,13.18
2023-03-29T11:43:28.828Z,11.00
2023-03-29T11:44:37.516Z,11.20
2023-03-29T11:45:46.995Z,11.13
2023-03-29T11:47:00.174Z,9.77
2023-03-29T11:48:09.177Z,12.02
2023-03-29T11:49:23.587Z,11.02
2023-03-29T11:50:34.764Z,10.32
2023-03-29T11:51:46.788Z,14.43
2023-03-29T11:52:56.097Z,15.47
2023-03-29T11:54:09.632Z,17.02
2023-03-29T11:55:25.364Z,18.52
2023-03-29T11:56:37.278Z,14.18
2023-03-29T11:57:47.071Z,12.45
2023-03-29T11:59:03.095Z,15.15
2023-03-29T12:00:21.264Z,15.45
2023-03-29T12:01:33.645Z,13.27
2023-03-29T12:02:43.449Z,13.55
2023-03-29T12:03:55.453Z,18.50
2023-03-29T12:05:05.638Z,13.47
2023-03-29T12:06:19.376Z,13.32
2023-03-29T12:07:31.895Z,12.70
2023-03-29T12:08:40.944Z,16.40
2023-03-29T12:09:51.938Z,17.00
2023-03-29T12:11:07.163Z,15.60
2023-03-29T12:12:24.903Z,18.08
2023-03-29T12:13:36.761Z,14.65
2023-03-29T12:14:56.802Z,12.35
2023-03-29T12:16:12.232Z,13.37
2023-03-29T12:17:23.931Z,11.70
2023-03-29T12:18:33.285Z,13.45
2023-03-29T12:19:43.794Z,10.23
2023-03-29T12:20:57.141Z,13.10
2023-03-29T12:22:04.066Z,12.30
2023-03-29T12:23:18.786Z,13.00
2023-03-29T12:24:27.523Z,11.77
2023-03-29T12:25:39.415Z,12.95
2023-03-29T12:27:22.307Z,14.70
2023-03-29T12:28:49.675Z,14.00
2023-03-29T12:30:28.791Z,13.63
2023-03-29T12:31:41.518Z,12.55
2023-03-29T12:32:58.419Z,12.13
2023-03-29T12:34:31.263Z,14.15
2023-03-29T12:35:46.675Z,12.35
2023-03-29T12:37:10.826Z,12.05
2023-03-29T12:38:28.679Z,11.85
2023-03-29T12:39:39.216Z,13.52
2023-03-29T12:40:47.882Z,12.95
2023-03-29T12:41:56.696Z,12.10
2023-03-29T12:43:09.564Z,11.52
2023-03-29T12:44:19.370Z,11.27
2023-03-29T12:45:49.893Z,10.90
2023-03-29T12:47:00.462Z,15.07
2023-03-29T12:48:08.035Z,12.90
2023-03-29T12:49:21.031Z,10.90
2023-03-29T12:50:54.866Z,12.68
2023-03-29T12:52:04.378Z,12.88
2023-03-29T12:53:20.465Z,9.00
2023-03-29T12:54:35.524Z,12.20
2023-03-29T12:55:56.357Z,9.38
2023-03-29T12:57:09.056Z,10.48
2023-03-29T12:58:35.139Z,10.57
2023-03-29T12:59:48.354Z,11.45
2023-03-29T13:01:08.511Z,10.35
2023-03-29T13:02:47.390Z,9.73
2023-03-29T13:03:54.822Z,10.43
2023-03-29T13:05:03.732Z,10.10
2023-03-29T13:06:15.577Z,9.60
2023-03-29T13:07:53.489Z,10.17
2023-03-29T16:38:07.672Z,13.43
2023-03-29T16:39:16.310Z,11.15
2023-03-29T16:40:22.637Z,11.48
2023-03-29T16:41:29.335Z,13.30
2023-03-29T16:42:36.118Z,13.90
2023-03-29T16:43:42.860Z,15.98
2023-03-29T16:44:49.583Z,11.37
2023-03-29T16:45:56.575Z,14.95
2023-03-29T16:47:03.471Z,13.65
2023-03-29T16:48:08.942Z,12.50
2023-03-29T16:49:19.642Z,13.50
2023-03-29T16:50:26.510Z,12.95
2023-03-29T16:51:33.340Z,14.05
2023-03-29T16:52:40.571Z,13.57
2023-03-29T16:53:45.922Z,14.00
2023-03-29T16:54:54.656Z,12.95
2023-03-29T16:56:01.685Z,13.40
2023-03-29T16:57:09.267Z,13.05
2023-03-29T16:58:16.803Z,12.43
2023-03-29T16:59:23.558Z,14.30
2023-03-29T17:00:30.817Z,15.20
2023-03-29T17:01:37.757Z,14.30
2023-03-29T17:02:44.580Z,13.32
2023-03-29T17:03:51.294Z,16.90
2023-03-29T17:04:56.810Z,14.60
2023-03-29T17:06:04.019Z,16.95
2023-03-29T17:07:10.962Z,12.57
2023-03-29T17:08:16.428Z,14.90
2023-03-29T17:09:23.276Z,15.85
2023-03-29T17:10:31.728Z,13.32
2023-03-29T17:11:38.669Z,14.95
2023-03-29T17:12:45.445Z,14.75
2023-03-29T17:13:50.803Z,18.27
2023-03-29T17:14:57.572Z,16.92
2023-03-29T17:16:03.367Z,15.38
2023-03-29T17:17:10.818Z,15.00
2023-03-29T17:18:17.645Z,13.07
2023-03-29T17:19:24.410Z,13.85
2023-03-29T17:20:29.900Z,14.35
2023-03-29T17:21:36.821Z,13.68
2023-03-29T17:22:43.977Z,15.13
2023-03-29T17:23:49.331Z,15.98
2023-03-29T17:24:56.153Z,14.70
2023-03-29T17:26:05.047Z,14.25
2023-03-29T17:27:12.043Z,15.80
2023-03-29T17:28:17.460Z,15.65
2023-03-29T17:29:24.182Z,13.87
2023-03-29T17:30:29.644Z,12.52
2023-03-29T17:31:37.793Z,13.93
2023-03-29T17:32:43.236Z,14.52
2023-03-29T17:33:52.233Z,12.07
2023-03-29T17:35:00.766Z,11.75
2023-03-29T17:36:07.573Z,12.35
2023-03-29T17:37:14.695Z,13.02
2023-03-29T17:38:21.800Z,13.63
2023-03-29T17:39:29.121Z,14.27
2023-03-29T17:40:34.440Z,13.57
2023-03-29T17:41:43.550Z,13.93
2023-03-29T17:42:49.693Z,12.25
2023-03-29T17:43:56.385Z,12.38
2023-03-29T17:45:01.783Z,12.35
2023-03-29T17:46:08.856Z,11.55
2023-03-29T17:47:15.554Z,12.18
2023-03-29T17:48:22.768Z,11.52
2023-03-29T17:49:31.505Z,12.35
2023-03-29T17:50:38.336Z,12.75
2023-03-29T17:51:45.165Z,12.33
2023-03-29T17:52:50.710Z,12.68
2023-03-29T17:53:58.643Z,12.50
2023-03-29T17:55:04.115Z,16.77
2023-03-29T17:56:11.821Z,15.40
2023-03-29T17:57:20.356Z,13.13
2023-03-29T17:58:27.108Z,14.02
2023-03-29T17:59:33.808Z,13.25
2023-03-29T18:00:39.528Z,12.63
2023-03-29T18:01:46.459Z,13.93
2023-03-29T18:02:53.212Z,14.30
2023-03-29T18:04:00.058Z,12.48
2023-03-29T18:05:06.065Z,12.63
2023-03-29T18:06:13.072Z,14.85
2023-03-29T18:07:18.949Z,14.13
2023-03-29T18:08:25.606Z,12.23
2023-03-29T18:09:31.155Z,13.38
2023-03-29T18:10:38.326Z,14.20
2023-03-29T18:11:43.672Z,15.07
2023-03-29T18:12:52.137Z,14.25
2023-03-29T18:14:01.671Z,17.30
2023-03-29T18:15:08.969Z,18.45
2023-03-29T18:16:14.396Z,18.40
2023-03-29T18:17:21.116Z,15.52
2023-03-29T18:18:28.241Z,16.98
2023-03-29T18:19:34.997Z,15.60
2023-03-29T18:20:43.625Z,13.60
2023-03-29T18:21:50.329Z,17.00
2023-03-29T18:22:55.721Z,15.93
2023-03-29T18:24:02.551Z,12.57
2023-03-29T18:25:08.953Z,16.03
2023-03-29T18:26:16.208Z,14.32
2023-03-29T18:27:22.054Z,14.57
2023-03-29T18:28:30.471Z,11.20
2023-03-29T18:29:35.980Z,13.25
2023-03-29T18:30:42.722Z,14.80
2023-03-29T18:31:49.773Z,14.02
2023-03-29T18:32:56.617Z,15.98
2023-03-29T18:34:03.687Z,12.48
2023-03-29T18:35:11.281Z,13.98
2023-03-29T18:36:18.284Z,18.37
2023-03-29T18:37:25.193Z,25.45
2023-03-29T18:38:31.151Z,24.17
2023-03-29T18:39:38.764Z,25.30
2023-03-29T18:40:45.450Z,26.25
2023-03-29T18:41:52.095Z,25.35
2023-03-29T18:42:57.401Z,23.73
2023-03-29T18:44:05.785Z,27.85
2023-03-29T18:45:13.348Z,23.63
2023-03-29T18:46:18.769Z,25.08
2023-03-29T18:47:25.420Z,24.03
2023-03-29T18:48:31.022Z,26.63
2023-03-29T18:49:38.097Z,25.27
2023-03-29T18:50:46.842Z,25.02
2023-03-29T18:51:53.506Z,30.48
2023-03-29T18:52:58.771Z,26.45
2023-03-29T18:54:05.773Z,27.27
2023-03-29T18:55:11.802Z,27.17
2023-03-29T18:56:18.482Z,29.95
2023-03-29T18:57:25.175Z,27.05
2023-03-29T18:58:30.666Z,26.70
2023-03-29T18:59:39.150Z,28.60
2023-03-29T19:00:45.353Z,25.33
2023-03-29T19:01:52.043Z,26.98
2023-03-29T19:02:58.749Z,32.42
2023-03-29T19:04:05.439Z,28.25
2023-03-29T19:05:12.793Z,27.52
2023-03-29T19:06:19.496Z,26.55
2023-03-29T19:07:26.110Z,27.80
2023-03-29T19:08:34.398Z,25.50
2023-03-29T19:09:39.710Z,26.73
2023-03-29T19:10:46.486Z,25.17
2023-03-29T19:11:53.160Z,28.35
2023-03-29T19:12:59.806Z,26.60
2023-03-29T19:14:06.625Z,25.42
2023-03-29T19:15:16.070Z,24.75
2023-03-29T19:16:21.955Z,24.48
2023-03-29T19:17:29.171Z,26.42
2023-03-29T19:18:35.990Z,24.27
2023-03-29T19:19:47.379Z,23.80
2023-03-29T19:20:55.592Z,23.57
2023-03-29T19:22:02.267Z,25.25
2023-03-29T19:23:07.666Z,23.42
2023-03-29T19:24:14.412Z,27.30
2023-03-29T19:25:21.224Z,25.60
2023-03-29T19:26:26.824Z,28.25
2023-03-29T19:27:33.612Z,27.15
2023-03-29T19:28:40.363Z,24.45
2023-03-29T19:29:45.636Z,25.13
2023-03-29T19:30:54.325Z,26.02
2023-03-29T19:32:01.055Z,25.40
2023-03-29T19:33:07.929Z,23.90
2023-03-29T19:34:14.656Z,25.63
2023-03-29T19:35:20.154Z,23.27
2023-03-29T19:36:26.805Z,24.17
2023-03-29T19:37:33.477Z,23.45
2023-03-29T19:38:40.200Z,25.33
2023-03-29T19:39:46.206Z,25.52
2023-03-29T19:40:54.131Z,26.63
2023-03-29T19:41:59.689Z,26.38
2023-03-29T19:43:06.328Z,26.90
2023-03-29T19:44:13.135Z,22.75
2023-03-29T19:45:18.544Z,23.50
2023-03-29T19:46:26.944Z,26.63
2023-03-29T19:47:33.909Z,26.58
2023-03-29T19:48:39.407Z,22.67
2023-03-29T19:49:47.973Z,24.80
2023-03-29T19:50:53.470Z,26.20
2023-03-29T19:52:00.107Z,25.23
2023-03-29T19:53:05.502Z,26.77
2023-03-29T19:54:14.235Z,26.57
2023-03-29T19:55:21.115Z,23.90
2023-03-29T19:56:29.392Z,27.58
2023-03-29T19:57:36.097Z,27.33
2023-03-29T19:58:41.419Z,29.60
2023-03-29T19:59:48.092Z,26.50
2023-03-29T20:00:59.523Z,26.30
2023-03-29T20:02:06.678Z,27.30
2023-03-29T20:03:15.447Z,29.42
2023-03-29T20:04:22.599Z,30.52
2023-03-29T20:05:28.086Z,28.27
2023-03-29T20:06:34.779Z,25.63
2023-03-29T20:07:40.132Z,28.50
2023-03-29T20:08:46.832Z,29.17
2023-03-29T20:09:52.157Z,27.00
2023-03-29T20:11:02.239Z,26.92
2023-03-29T20:12:08.006Z,25.35
2023-03-29T20:13:19.009Z,28.08
2023-03-29T20:14:31.427Z,27.65
2023-03-29T20:15:36.673Z,27.52
2023-03-29T20:16:44.194Z,29.20
2023-03-29T20:17:52.943Z,26.88
2023-03-29T20:19:03.375Z,30.08
2023-03-29T20:20:12.002Z,28.60
2023-03-29T20:21:18.204Z,30.15
2023-03-29T20:22:27.445Z,29.50
2023-03-29T20:23:34.035Z,28.50
2023-03-29T20:24:40.769Z,32.50
2023-03-29T20:25:47.733Z,27.20
2023-03-29T20:26:53.086Z,28.20
2023-03-29T20:28:01.160Z,27.03
2023-03-29T20:29:06.644Z,28.17
2023-03-29T20:30:14.168Z,26.05
2023-03-29T20:31:19.605Z,27.55
2023-03-29T20:32:26.304Z,27.30
2023-03-29T20:33:33.401Z,26.25
2023-03-29T20:34:40.211Z,27.40
2023-03-29T20:35:48.675Z,28.35
2023-03-29T20:36:56.638Z,26.98
2023-03-29T20:38:03.436Z,28.27
2023-03-29T20:39:09.781Z,28.13
2023-03-29T20:40:17.166Z,28.48
2023-03-29T20:41:22.490Z,28.25
2023-03-29T20:42:31.291Z,29.10
2023-03-29T20:43:38.808Z,28.40
2023-03-29T20:44:51.911Z,31.70
2023-03-29T20:45:57.306Z,32.25
2023-03-29T20:47:08.059Z,28.98
2023-03-29T20:48:13.489Z,32.92
2023-03-29T20:49:27.599Z,29.23
2023-03-29T20:50:34.332Z,28.83
2023-03-29T20:51:39.866Z,30.52
2023-03-29T20:52:46.490Z,35.15
2023-03-29T20:53:53.343Z,28.85
2023-03-29T20:55:00.709Z,34.20
2023-03-29T20:56:08.205Z,33.70
2023-03-29T20:57:16.474Z,32.17
2023-03-29T20:58:21.841Z,32.00
2023-03-29T20:59:29.308Z,31.40
2023-03-29T21:00:39.100Z,32.00
2023-03-29T21:01:44.415Z,32.73
2023-03-29T21:02:51.225Z,30.52
2023-03-29T21:03:58.267Z,29.38
2023-03-29T21:05:05.730Z,29.77
2023-03-29T21:06:15.516Z,32.08
2023-03-29T21:07:23.090Z,31.80
2023-03-29T21:08:30.203Z,31.75
2023-03-29T21:09:38.362Z,32.17
2023-03-29T21:10:45.028Z,31.90
2023-03-29T21:11:50.404Z,33.55
2023-03-29T21:13:01.503Z,33.90
2023-03-29T21:14:06.957Z,37.88
2023-03-29T21:15:14.938Z,33.47
2023-03-29T21:16:22.020Z,28.30
2023-03-29T21:17:28.887Z,34.38
2023-03-29T21:18:34.272Z,29.58
2023-03-29T21:19:42.382Z,31.65
2023-03-29T21:20:51.179Z,30.88
2023-03-29T21:21:57.812Z,30.90
2023-03-29T21:23:03.118Z,30.55
2023-03-29T21:24:10.334Z,32.60
2023-03-29T21:25:17.592Z,31.73
2023-03-29T21:26:24.281Z,30.50
2023-03-29T21:27:30.909Z,32.47
2023-03-29T21:28:39.056Z,29.58
2023-03-29T21:29:45.719Z,35.10
2023-03-29T21:30:51.162Z,34.75
2023-03-29T21:31:57.892Z,31.23
2023-03-29T21:33:03.232Z,33.83
2023-03-29T21:34:09.985Z,34.40
2023-03-29T21:35:15.518Z,33.00
2023-03-29T21:36:23.925Z,35.92
2023-03-29T21:37:29.208Z,33.25
2023-03-29T21:38:36.568Z,37.22
2023-03-29T21:39:43.807Z,41.58
2023-03-29T21:40:49.182Z,38.83
2023-03-29T21:41:55.846Z,39.72
2023-03-29T21:43:01.111Z,37.38
2023-03-29T21:44:07.780Z,36.20
2023-03-29T21:45:14.007Z,33.65
2023-03-29T21:46:20.746Z,37.83
2023-03-29T21:47:26.127Z,40.28
2023-03-29T21:48:32.783Z,39.90
2023-03-29T21:49:38.058Z,36.97
2023-03-29T21:50:44.773Z,38.80
2023-03-29T21:51:51.886Z,34.08
2023-03-29T21:52:58.656Z,37.08
2023-03-29T21:54:03.984Z,33.83
2023-03-29T21:55:11.469Z,33.83
2023-03-29T21:56:18.107Z,35.22
2023-03-29T21:57:23.419Z,33.07
2023-03-29T21:58:30.184Z,37.00
2023-03-29T21:59:36.941Z,34.92
2023-03-29T22:00:42.221Z,32.80
2023-03-29T22:01:48.925Z,33.03
2023-03-29T22:02:54.398Z,32.15
2023-03-29T22:04:01.163Z,32.53
2023-03-29T22:05:08.454Z,30.40
2023-03-29T22:06:16.408Z,32.40
2023-03-29T22:07:25.245Z,32.83
2023-03-29T22:08:30.575Z,30.83
2023-03-29T22:09:37.957Z,33.67
2023-03-29T22:10:43.475Z,34.50
2023-03-29T22:11:50.153Z,33.65
2023-03-29T22:12:55.472Z,33.75
2023-03-29T22:14:02.246Z,35.85
2023-03-29T22:15:08.493Z,33.72
2023-03-29T22:16:21.320Z,39.45
2023-03-29T22:17:28.110Z,38.50
2023-03-29T22:18:44.132Z,37.58
2023-03-29T22:19:49.517Z,34.73
2023-03-29T22:20:56.558Z,36.88
2023-03-29T22:22:03.446Z,36.20
2023-03-29T22:23:10.429Z,35.72
2023-03-29T22:24:17.103Z,34.30
2023-03-29T22:25:24.258Z,40.10
2023-03-29T22:26:32.121Z,37.58
2023-03-29T22:27:37.599Z,36.60
2023-03-29T22:28:44.329Z,37.83
2023-03-29T22:29:51.044Z,37.03
2023-03-29T22:30:56.355Z,36.97
2023-03-29T22:32:03.147Z,34.97
2023-03-29T22:33:08.691Z,35.90
2023-03-29T22:34:15.429Z,36.53
2023-03-29T22:35:20.845Z,32.65
2023-03-29T22:36:29.007Z,40.08
2023-03-29T22:37:34.328Z,43.08
2023-03-29T22:38:42.998Z,35.20
2023-03-29T22:39:48.914Z,39.78
2023-03-29T22:40:55.669Z,35.75
2023-03-29T22:42:02.430Z,37.67
2023-03-29T22:43:07.971Z,42.75
2023-03-29T22:44:14.837Z,38.58
2023-03-29T22:45:20.286Z,39.95
2023-03-29T22:46:27.859Z,40.75
2023-03-29T22:47:33.526Z,39.92
2023-03-29T22:48:40.681Z,37.33
2023-03-29T22:49:46.093Z,39.05
2023-03-29T22:50:52.794Z,37.88
2023-03-29T22:51:58.238Z,42.83
2023-03-29T22:53:04.904Z,40.83
2023-03-29T22:54:12.082Z,37.47
2023-03-29T22:55:19.100Z,39.47
2023-03-29T22:56:26.331Z,42.88
2023-03-29T22:57:31.628Z,39.17
2023-03-29T22:58:38.417Z,37.97
2023-03-29T22:59:43.872Z,39.25
2023-03-29T23:00:50.806Z,41.85
2023-03-29T23:01:56.270Z,40.97
2023-03-29T23:03:03.147Z,40.47
2023-03-29T23:04:08.808Z,39.10
2023-03-29T23:05:15.668Z,42.28
2023-03-29T23:06:21.025Z,34.78
2023-03-29T23:07:27.811Z,38.92
2023-03-29T23:08:34.186Z,38.08
2023-03-29T23:09:42.655Z,37.65
2023-03-29T23:10:49.211Z,39.45
2023-03-29T23:11:55.956Z,44.80
2023-03-29T23:13:10.379Z,39.67
2023-03-29T23:14:17.194Z,44.90
2023-03-29T23:15:24.276Z,41.87
2023-03-29T23:16:31.252Z,43.30
2023-03-29T23:17:36.844Z,40.45
2023-03-29T23:18:43.514Z,39.50
2023-03-29T23:19:49.424Z,37.80
2023-03-29T23:20:58.073Z,36.65
2023-03-29T23:22:03.581Z,39.08
2023-03-29T23:23:10.794Z,35.42
2023-03-29T23:24:19.230Z,34.15
2023-03-29T23:25:28.081Z,33.55
2023-03-29T23:26:33.428Z,33.33
2023-03-29T23:27:40.167Z,36.25
2023-03-29T23:28:46.291Z,33.72
2023-03-29T23:29:53.016Z,33.92
2023-03-29T23:31:01.825Z,34.95
2023-03-29T23:32:07.648Z,32.67
2023-03-29T23:33:16.058Z,31.10
2023-03-29T23:34:21.806Z,34.60
2023-03-29T23:35:28.638Z,31.88
2023-03-29T23:36:35.374Z,35.90
2023-03-29T23:37:41.076Z,33.70
2023-03-29T23:38:49.440Z,34.15
2023-03-29T23:39:55.259Z,32.83
2023-03-29T23:41:05.036Z,33.72
2023-03-29T23:42:10.934Z,34.83
2023-03-29T23:43:18.558Z,32.03
2023-03-29T23:44:24.110Z,33.35
2023-03-29T23:45:31.200Z,34.83
2023-03-29T23:46:36.633Z,32.53
2023-03-29T23:47:43.979Z,35.55
2023-03-29T23:48:51.926Z,34.13
2023-03-29T23:49:57.350Z,31.88
2023-03-29T23:51:04.198Z,32.22
2023-03-29T23:52:09.747Z,33.35
2023-03-29T23:53:17.345Z,33.67
2023-03-29T23:54:24.067Z,34.60
2023-03-29T23:55:29.497Z,32.50
2023-03-29T23:56:38.137Z,34.75
2023-03-29T23:57:43.609Z,40.20
2023-03-29T23:58:50.377Z,35.10
2023-03-29T23:59:57.246Z,36.47
